sensor_id;sensor_type;location;lat;lon;timestamp;P1;durP1;ratioP1;P2;durP2;ratioP2
75169;SDS011;63749;49.186;9.222;2024-03-23T00:53:02;21.50;;;10.67;;
75169;SDS011;63749;49.186;9.222;2024-03-23T00:55:28;14.93;;;10.48;;
75169;SDS011;63749;49.186;9.222;2024-03-23T00:57:53;16.53;;;10.83;;
75169;SDS011;63749;49.186;9.222;2024-03-23T01:00:19;18.53;;;10.07;;
75169;SDS011;63749;49.186;9.222;2024-03-23T01:02:44;18.87;;;10.57;;
75169;SDS011;63749;49.186;9.222;2024-03-23T01:05:09;18.38;;;10.65;;
75169;SDS011;63749;49.186;9.222;2024-03-23T01:07:35;16.30;;;9.87;;
75169;SDS011;63749;49.186;9.222;2024-03-23T01:10:02;20.55;;;10.07;;
75169;SDS011;63749;49.186;9.222;2024-03-23T01:12:27;15.73;;;9.77;;
75169;SDS011;63749;49.186;9.222;2024-03-23T01:14:53;16.60;;;10.10;;
75169;SDS011;63749;49.186;9.222;2024-03-23T01:17:18;18.53;;;11.43;;
75169;SDS011;63749;49.186;9.222;2024-03-23T01:19:43;20.30;;;11.43;;
75169;SDS011;63749;49.186;9.222;2024-03-23T01:22:09;22.83;;;13.10;;
75169;SDS011;63749;49.186;9.222;2024-03-23T01:24:35;24.55;;;13.05;;
75169;SDS011;63749;49.186;9.222;2024-03-23T01:27:00;22.40;;;13.60;;
75169;SDS011;63749;49.186;9.222;2024-03-23T01:29:26;22.40;;;13.47;;
75169;SDS011;63749;49.186;9.222;2024-03-23T01:31:51;24.30;;;14.73;;
75169;SDS011;63749;49.186;9.222;2024-03-23T01:34:16;25.93;;;13.87;;
75169;SDS011;63749;49.186;9.222;2024-03-23T01:36:42;22.38;;;13.40;;
75169;SDS011;63749;49.186;9.222;2024-03-23T01:39:07;22.17;;;12.47;;
75169;SDS011;63749;49.186;9.222;2024-03-23T01:41:34;19.73;;;11.18;;
75169;SDS011;63749;49.186;9.222;2024-03-23T01:44:01;18.13;;;10.45;;
75169;SDS011;63749;49.186;9.222;2024-03-23T01:46:30;15.38;;;9.82;;
75169;SDS011;63749;49.186;9.222;2024-03-23T01:48:55;15.57;;;10.27;;
75169;SDS011;63749;49.186;9.222;2024-03-23T01:51:21;15.47;;;9.83;;
75169;SDS011;63749;49.186;9.222;2024-03-23T01:53:47;18.83;;;10.55;;
75169;SDS011;63749;49.186;9.222;2024-03-23T01:56:12;20.40;;;10.97;;
75169;SDS011;63749;49.186;9.222;2024-03-23T01:58:38;19.20;;;11.17;;
75169;SDS011;63749;49.186;9.222;2024-03-23T02:01:03;19.33;;;10.97;;
75169;SDS011;63749;49.186;9.222;2024-03-23T02:03:29;18.92;;;11.30;;
75169;SDS011;63749;49.186;9.222;2024-03-23T02:05:54;20.53;;;11.10;;
75169;SDS011;63749;49.186;9.222;2024-03-23T02:08:21;17.38;;;11.40;;
75169;SDS011;63749;49.186;9.222;2024-03-23T02:10:48;18.38;;;11.07;;
75169;SDS011;63749;49.186;9.222;2024-03-23T02:13:14;18.83;;;10.53;;
75169;SDS011;63749;49.186;9.222;2024-03-23T02:15:40;16.88;;;9.80;;
75169;SDS011;63749;49.186;9.222;2024-03-23T02:18:09;17.60;;;9.82;;
75169;SDS011;63749;49.186;9.222;2024-03-23T02:20:35;16.70;;;9.33;;
75169;SDS011;63749;49.186;9.222;2024-03-23T02:23:01;15.65;;;9.73;;
75169;SDS011;63749;49.186;9.222;2024-03-23T02:25:26;15.35;;;9.10;;
75169;SDS011;63749;49.186;9.222;2024-03-23T02:27:52;17.93;;;8.73;;
75169;SDS011;63749;49.186;9.222;2024-03-23T02:30:19;14.00;;;7.72;;
75169;SDS011;63749;49.186;9.222;2024-03-23T02:32:45;11.43;;;7.50;;
75169;SDS011;63749;49.186;9.222;2024-03-23T02:35:10;11.07;;;6.47;;
75169;SDS011;63749;49.186;9.222;2024-03-23T02:37:35;15.43;;;6.70;;
75169;SDS011;63749;49.186;9.222;2024-03-23T02:40:01;14.87;;;6.60;;
75169;SDS011;63749;49.186;9.222;2024-03-23T02:42:27;13.52;;;7.32;;
75169;SDS011;63749;49.186;9.222;2024-03-23T02:44:53;14.33;;;8.30;;
75169;SDS011;63749;49.186;9.222;2024-03-23T02:47:19;13.82;;;8.38;;
75169;SDS011;63749;49.186;9.222;2024-03-23T02:49:44;14.87;;;8.67;;
75169;SDS011;63749;49.186;9.222;2024-03-23T02:52:10;16.43;;;8.70;;
75169;SDS011;63749;49.186;9.222;2024-03-23T02:54:35;11.17;;;6.77;;
75169;SDS011;63749;49.186;9.222;2024-03-23T02:57:01;10.65;;;6.07;;
75169;SDS011;63749;49.186;9.222;2024-03-23T02:59:26;13.43;;;7.00;;
75169;SDS011;63749;49.186;9.222;2024-03-23T03:01:51;13.10;;;8.03;;
75169;SDS011;63749;49.186;9.222;2024-03-23T03:04:17;15.27;;;8.80;;
75169;SDS011;63749;49.186;9.222;2024-03-23T03:06:43;15.67;;;8.97;;
75169;SDS011;63749;49.186;9.222;2024-03-23T03:09:11;13.65;;;7.93;;
75169;SDS011;63749;49.186;9.222;2024-03-23T03:11:37;15.13;;;6.87;;
75169;SDS011;63749;49.186;9.222;2024-03-23T03:14:02;13.40;;;7.33;;
75169;SDS011;63749;49.186;9.222;2024-03-23T03:16:28;11.75;;;7.30;;
75169;SDS011;63749;49.186;9.222;2024-03-23T03:18:53;14.43;;;7.27;;
75169;SDS011;63749;49.186;9.222;2024-03-23T03:21:19;12.47;;;6.87;;
75169;SDS011;63749;49.186;9.222;2024-03-23T03:23:44;10.90;;;6.90;;
75169;SDS011;63749;49.186;9.222;2024-03-23T03:26:09;10.43;;;6.10;;
75169;SDS011;63749;49.186;9.222;2024-03-23T03:28:35;12.17;;;5.53;;
75169;SDS011;63749;49.186;9.222;2024-03-23T03:31:00;9.70;;;5.43;;
75169;SDS011;63749;49.186;9.222;2024-03-23T03:33:26;8.97;;;5.87;;
75169;SDS011;63749;49.186;9.222;2024-03-23T03:35:52;8.82;;;5.28;;
75169;SDS011;63749;49.186;9.222;2024-03-23T03:38:18;9.37;;;5.50;;
75169;SDS011;63749;49.186;9.222;2024-03-23T03:40:44;10.68;;;5.22;;
75169;SDS011;63749;49.186;9.222;2024-03-23T03:43:09;10.03;;;5.63;;
75169;SDS011;63749;49.186;9.222;2024-03-23T03:45:34;10.53;;;5.03;;
75169;SDS011;63749;49.186;9.222;2024-03-23T03:48:00;8.87;;;5.00;;
75169;SDS011;63749;49.186;9.222;2024-03-23T03:50:25;9.32;;;5.40;;
75169;SDS011;63749;49.186;9.222;2024-03-23T03:52:50;11.13;;;5.60;;
75169;SDS011;63749;49.186;9.222;2024-03-23T03:55:16;7.70;;;5.00;;
75169;SDS011;63749;49.186;9.222;2024-03-23T03:57:41;10.33;;;5.70;;
75169;SDS011;63749;49.186;9.222;2024-03-23T04:00:07;12.70;;;6.00;;
75169;SDS011;63749;49.186;9.222;2024-03-23T04:02:36;9.97;;;6.00;;
75169;SDS011;63749;49.186;9.222;2024-03-23T04:05:02;10.32;;;5.85;;
75169;SDS011;63749;49.186;9.222;2024-03-23T04:07:28;10.13;;;6.15;;
75169;SDS011;63749;49.186;9.222;2024-03-23T04:09:53;11.43;;;6.50;;
75169;SDS011;63749;49.186;9.222;2024-03-23T04:12:19;9.18;;;5.90;;
75169;SDS011;63749;49.186;9.222;2024-03-23T04:14:45;10.27;;;6.43;;
75169;SDS011;63749;49.186;9.222;2024-03-23T04:17:10;14.32;;;6.03;;
75169;SDS011;63749;49.186;9.222;2024-03-23T04:19:36;11.83;;;6.60;;
75169;SDS011;63749;49.186;9.222;2024-03-23T04:22:01;10.47;;;6.13;;
75169;SDS011;63749;49.186;9.222;2024-03-23T04:24:26;11.97;;;7.10;;
75169;SDS011;63749;49.186;9.222;2024-03-23T04:26:52;12.73;;;7.17;;
75169;SDS011;63749;49.186;9.222;2024-03-23T04:29:17;12.73;;;7.47;;
75169;SDS011;63749;49.186;9.222;2024-03-23T04:31:43;13.47;;;7.40;;
75169;SDS011;63749;49.186;9.222;2024-03-23T04:34:08;12.10;;;7.30;;
75169;SDS011;63749;49.186;9.222;2024-03-23T04:36:33;15.93;;;7.70;;
75169;SDS011;63749;49.186;9.222;2024-03-23T04:38:59;13.30;;;8.00;;
75169;SDS011;63749;49.186;9.222;2024-03-23T04:41:25;14.27;;;7.93;;
75169;SDS011;63749;49.186;9.222;2024-03-23T04:43:51;16.30;;;8.90;;
75169;SDS011;63749;49.186;9.222;2024-03-23T04:46:16;14.47;;;8.10;;
75169;SDS011;63749;49.186;9.222;2024-03-23T04:48:42;16.07;;;9.17;;
75169;SDS011;63749;49.186;9.222;2024-03-23T04:51:09;15.90;;;9.05;;
75169;SDS011;63749;49.186;9.222;2024-03-23T04:53:35;14.25;;;8.70;;
75169;SDS011;63749;49.186;9.222;2024-03-23T04:56:00;17.03;;;9.17;;
75169;SDS011;63749;49.186;9.222;2024-03-23T04:58:27;13.35;;;8.73;;
75169;SDS011;63749;49.186;9.222;2024-03-23T05:00:55;17.70;;;9.93;;
75169;SDS011;63749;49.186;9.222;2024-03-23T05:03:23;16.80;;;9.20;;
75169;SDS011;63749;49.186;9.222;2024-03-23T05:05:49;15.85;;;8.73;;
75169;SDS011;63749;49.186;9.222;2024-03-23T05:08:15;16.27;;;9.77;;
75169;SDS011;63749;49.186;9.222;2024-03-23T05:10:41;16.67;;;9.30;;
75169;SDS011;63749;49.186;9.222;2024-03-23T05:13:10;14.65;;;9.05;;
75169;SDS011;63749;49.186;9.222;2024-03-23T05:15:36;17.83;;;9.90;;
75169;SDS011;63749;49.186;9.222;2024-03-23T05:18:01;15.77;;;8.87;;
75169;SDS011;63749;49.186;9.222;2024-03-23T05:20:27;16.30;;;9.60;;
75169;SDS011;63749;49.186;9.222;2024-03-23T05:22:52;18.67;;;9.43;;
75169;SDS011;63749;49.186;9.222;2024-03-23T05:25:19;14.60;;;8.27;;
75169;SDS011;63749;49.186;9.222;2024-03-23T05:27:44;15.90;;;9.53;;
75169;SDS011;63749;49.186;9.222;2024-03-23T05:30:10;17.83;;;8.90;;
75169;SDS011;63749;49.186;9.222;2024-03-23T05:32:35;15.10;;;7.53;;
75169;SDS011;63749;49.186;9.222;2024-03-23T05:35:01;14.27;;;7.43;;
75169;SDS011;63749;49.186;9.222;2024-03-23T05:37:26;11.70;;;6.20;;
75169;SDS011;63749;49.186;9.222;2024-03-23T05:39:52;11.57;;;6.37;;
75169;SDS011;63749;49.186;9.222;2024-03-23T05:42:17;13.83;;;7.50;;
75169;SDS011;63749;49.186;9.222;2024-03-23T05:44:46;13.32;;;7.47;;
75169;SDS011;63749;49.186;9.222;2024-03-23T05:47:12;9.53;;;5.57;;
75169;SDS011;63749;49.186;9.222;2024-03-23T05:49:41;9.05;;;4.85;;
75169;SDS011;63749;49.186;9.222;2024-03-23T05:52:08;9.85;;;5.05;;
75169;SDS011;63749;49.186;9.222;2024-03-23T05:54:34;10.25;;;5.43;;
75169;SDS011;63749;49.186;9.222;2024-03-23T05:57:00;11.73;;;5.90;;
75169;SDS011;63749;49.186;9.222;2024-03-23T05:59:26;12.00;;;5.80;;
75169;SDS011;63749;49.186;9.222;2024-03-23T06:01:52;11.30;;;5.18;;
75169;SDS011;63749;49.186;9.222;2024-03-23T06:04:17;11.47;;;5.63;;
75169;SDS011;63749;49.186;9.222;2024-03-23T06:06:43;10.60;;;4.70;;
75169;SDS011;63749;49.186;9.222;2024-03-23T06:09:08;8.37;;;4.40;;
75169;SDS011;63749;49.186;9.222;2024-03-23T06:11:33;7.90;;;4.27;;
75169;SDS011;63749;49.186;9.222;2024-03-23T06:13:59;6.38;;;3.58;;
75169;SDS011;63749;49.186;9.222;2024-03-23T06:16:24;6.87;;;3.37;;
75169;SDS011;63749;49.186;9.222;2024-03-23T06:18:50;5.17;;;2.90;;
75169;SDS011;63749;49.186;9.222;2024-03-23T06:21:16;6.57;;;2.95;;
75169;SDS011;63749;49.186;9.222;2024-03-23T06:23:41;5.90;;;2.60;;
75169;SDS011;63749;49.186;9.222;2024-03-23T06:26:07;4.40;;;2.60;;
75169;SDS011;63749;49.186;9.222;2024-03-23T06:28:33;4.43;;;2.17;;
75169;SDS011;63749;49.186;9.222;2024-03-23T06:30:59;5.15;;;2.50;;
75169;SDS011;63749;49.186;9.222;2024-03-23T06:33:24;6.90;;;2.20;;
75169;SDS011;63749;49.186;9.222;2024-03-23T06:35:50;4.97;;;2.10;;
75169;SDS011;63749;49.186;9.222;2024-03-23T06:38:17;4.30;;;2.10;;
75169;SDS011;63749;49.186;9.222;2024-03-23T06:40:42;4.30;;;2.10;;
75169;SDS011;63749;49.186;9.222;2024-03-23T06:43:12;3.15;;;1.65;;
75169;SDS011;63749;49.186;9.222;2024-03-23T06:45:38;4.60;;;1.90;;
75169;SDS011;63749;49.186;9.222;2024-03-23T06:48:03;3.73;;;2.37;;
75169;SDS011;63749;49.186;9.222;2024-03-23T06:50:29;2.55;;;1.90;;
75169;SDS011;63749;49.186;9.222;2024-03-23T06:52:54;3.00;;;2.10;;
75169;SDS011;63749;49.186;9.222;2024-03-23T06:55:19;2.63;;;1.80;;
75169;SDS011;63749;49.186;9.222;2024-03-23T06:57:45;3.50;;;2.13;;
75169;SDS011;63749;49.186;9.222;2024-03-23T07:00:11;3.70;;;2.40;;
75169;SDS011;63749;49.186;9.222;2024-03-23T07:02:38;4.00;;;2.30;;
75169;SDS011;63749;49.186;9.222;2024-03-23T07:05:03;5.67;;;3.00;;
75169;SDS011;63749;49.186;9.222;2024-03-23T07:07:29;4.45;;;2.97;;
75169;SDS011;63749;49.186;9.222;2024-03-23T07:09:55;3.97;;;2.60;;
75169;SDS011;63749;49.186;9.222;2024-03-23T07:12:20;4.60;;;2.80;;
75169;SDS011;63749;49.186;9.222;2024-03-23T07:14:46;5.78;;;2.30;;
75169;SDS011;63749;49.186;9.222;2024-03-23T07:17:11;4.53;;;2.87;;
75169;SDS011;63749;49.186;9.222;2024-03-23T07:19:36;5.03;;;3.03;;
75169;SDS011;63749;49.186;9.222;2024-03-23T07:22:02;4.23;;;2.90;;
75169;SDS011;63749;49.186;9.222;2024-03-23T07:24:27;5.13;;;3.27;;
75169;SDS011;63749;49.186;9.222;2024-03-23T07:26:52;4.60;;;3.30;;
75169;SDS011;63749;49.186;9.222;2024-03-23T07:29:19;4.40;;;2.90;;
75169;SDS011;63749;49.186;9.222;2024-03-23T07:31:44;4.67;;;2.70;;
75169;SDS011;63749;49.186;9.222;2024-03-23T07:34:10;3.42;;;2.13;;
75169;SDS011;63749;49.186;9.222;2024-03-23T07:36:35;4.07;;;2.50;;
75169;SDS011;63749;49.186;9.222;2024-03-23T07:39:00;3.23;;;1.90;;
75169;SDS011;63749;49.186;9.222;2024-03-23T07:41:26;2.65;;;1.70;;
75169;SDS011;63749;49.186;9.222;2024-03-23T07:43:53;2.13;;;1.27;;
75169;SDS011;63749;49.186;9.222;2024-03-23T07:46:18;1.98;;;1.25;;
75169;SDS011;63749;49.186;9.222;2024-03-23T07:48:45;2.58;;;1.40;;
75169;SDS011;63749;49.186;9.222;2024-03-23T07:51:31;1.90;;;1.20;;
75169;SDS011;63749;49.186;9.222;2024-03-23T07:53:57;2.08;;;1.10;;
75169;SDS011;63749;49.186;9.222;2024-03-23T07:56:22;4.33;;;1.00;;
75169;SDS011;63749;49.186;9.222;2024-03-23T07:58:48;1.33;;;1.02;;
75169;SDS011;63749;49.186;9.222;2024-03-23T08:01:14;1.30;;;0.90;;
75169;SDS011;63749;49.186;9.222;2024-03-23T08:03:44;0.98;;;0.80;;
75169;SDS011;63749;49.186;9.222;2024-03-23T08:06:11;1.20;;;0.80;;
75169;SDS011;63749;49.186;9.222;2024-03-23T08:08:41;0.90;;;0.80;;
75169;SDS011;63749;49.186;9.222;2024-03-23T08:11:07;1.13;;;0.80;;
75169;SDS011;63749;49.186;9.222;2024-03-23T08:13:36;0.90;;;0.70;;
75169;SDS011;63749;49.186;9.222;2024-03-23T08:16:03;0.75;;;0.60;;
75169;SDS011;63749;49.186;9.222;2024-03-23T08:18:29;1.10;;;0.80;;
75169;SDS011;63749;49.186;9.222;2024-03-23T08:20:59;1.85;;;0.70;;
75169;SDS011;63749;49.186;9.222;2024-03-23T08:23:29;2.33;;;0.77;;
75169;SDS011;63749;49.186;9.222;2024-03-23T08:25:58;1.30;;;0.80;;
75169;SDS011;63749;49.186;9.222;2024-03-23T08:28:25;1.63;;;0.90;;
75169;SDS011;63749;49.186;9.222;2024-03-23T08:30:51;1.10;;;0.90;;
75169;SDS011;63749;49.186;9.222;2024-03-23T08:33:17;2.88;;;0.85;;
75169;SDS011;63749;49.186;9.222;2024-03-23T08:35:42;1.50;;;0.90;;
75169;SDS011;63749;49.186;9.222;2024-03-23T08:38:17;2.07;;;1.10;;
75169;SDS011;63749;49.186;9.222;2024-03-23T08:40:42;1.10;;;0.82;;
75169;SDS011;63749;49.186;9.222;2024-03-23T08:43:08;8.00;;;0.90;;
75169;SDS011;63749;49.186;9.222;2024-03-23T08:45:33;1.17;;;0.90;;
75169;SDS011;63749;49.186;9.222;2024-03-23T08:47:58;2.27;;;1.10;;
75169;SDS011;63749;49.186;9.222;2024-03-23T08:50:23;1.27;;;0.90;;
75169;SDS011;63749;49.186;9.222;2024-03-23T08:52:50;3.13;;;1.13;;
75169;SDS011;63749;49.186;9.222;2024-03-23T08:55:16;3.80;;;1.13;;
75169;SDS011;63749;49.186;9.222;2024-03-23T08:57:41;2.47;;;1.20;;
75169;SDS011;63749;49.186;9.222;2024-03-23T09:00:06;2.33;;;1.37;;
75169;SDS011;63749;49.186;9.222;2024-03-23T09:02:33;3.17;;;1.33;;
75169;SDS011;63749;49.186;9.222;2024-03-23T09:04:59;1.90;;;1.17;;
75169;SDS011;63749;49.186;9.222;2024-03-23T09:07:29;6.60;;;1.33;;
75169;SDS011;63749;49.186;9.222;2024-03-23T09:09:57;4.10;;;1.40;;
75169;SDS011;63749;49.186;9.222;2024-03-23T09:12:23;6.20;;;1.60;;
75169;SDS011;63749;49.186;9.222;2024-03-23T09:14:49;5.93;;;1.88;;
75169;SDS011;63749;49.186;9.222;2024-03-23T09:17:15;2.95;;;1.55;;
75169;SDS011;63749;49.186;9.222;2024-03-23T09:19:41;3.37;;;1.57;;
75169;SDS011;63749;49.186;9.222;2024-03-23T09:22:06;5.47;;;1.70;;
75169;SDS011;63749;49.186;9.222;2024-03-23T09:24:31;4.22;;;1.77;;
75169;SDS011;63749;49.186;9.222;2024-03-23T09:26:57;4.47;;;2.20;;
75169;SDS011;63749;49.186;9.222;2024-03-23T09:29:22;6.43;;;1.80;;
75169;SDS011;63749;49.186;9.222;2024-03-23T09:31:48;7.10;;;1.90;;
75169;SDS011;63749;49.186;9.222;2024-03-23T09:34:13;4.87;;;1.70;;
75169;SDS011;63749;49.186;9.222;2024-03-23T09:36:39;3.97;;;1.67;;
75169;SDS011;63749;49.186;9.222;2024-03-23T09:39:04;5.63;;;2.03;;
75169;SDS011;63749;49.186;9.222;2024-03-23T09:41:30;6.75;;;1.92;;
75169;SDS011;63749;49.186;9.222;2024-03-23T09:43:56;4.33;;;1.93;;
75169;SDS011;63749;49.186;9.222;2024-03-23T09:46:21;6.97;;;2.10;;
75169;SDS011;63749;49.186;9.222;2024-03-23T09:48:46;6.27;;;2.03;;
75169;SDS011;63749;49.186;9.222;2024-03-23T09:51:12;5.00;;;2.40;;
75169;SDS011;63749;49.186;9.222;2024-03-23T09:53:38;4.57;;;1.83;;
75169;SDS011;63749;49.186;9.222;2024-03-23T09:56:04;4.85;;;1.80;;
75169;SDS011;63749;49.186;9.222;2024-03-23T09:58:29;4.93;;;2.00;;
75169;SDS011;63749;49.186;9.222;2024-03-23T10:00:57;6.25;;;1.80;;
75169;SDS011;63749;49.186;9.222;2024-03-23T10:03:22;4.63;;;1.67;;
75169;SDS011;63749;49.186;9.222;2024-03-23T10:05:47;4.13;;;1.93;;
75169;SDS011;63749;49.186;9.222;2024-03-23T10:08:26;5.93;;;1.70;;
75169;SDS011;63749;49.186;9.222;2024-03-23T10:10:54;4.22;;;1.73;;
75169;SDS011;63749;49.186;9.222;2024-03-23T10:13:26;5.03;;;1.60;;
75169;SDS011;63749;49.186;9.222;2024-03-23T10:15:56;4.32;;;1.60;;
75169;SDS011;63749;49.186;9.222;2024-03-23T10:18:26;5.33;;;1.70;;
75169;SDS011;63749;49.186;9.222;2024-03-23T10:21:06;4.30;;;1.58;;
75169;SDS011;63749;49.186;9.222;2024-03-23T10:23:33;4.93;;;1.63;;
75169;SDS011;63749;49.186;9.222;2024-03-23T10:26:12;4.55;;;1.63;;
75169;SDS011;63749;49.186;9.222;2024-03-23T10:28:45;3.53;;;1.60;;
75169;SDS011;63749;49.186;9.222;2024-03-23T10:31:20;3.87;;;1.60;;
75169;SDS011;63749;49.186;9.222;2024-03-23T10:33:47;3.58;;;1.60;;
75169;SDS011;63749;49.186;9.222;2024-03-23T10:36:13;5.50;;;1.85;;
75169;SDS011;63749;49.186;9.222;2024-03-23T10:38:40;5.50;;;1.88;;
75169;SDS011;63749;49.186;9.222;2024-03-23T10:41:07;5.97;;;1.75;;
75169;SDS011;63749;49.186;9.222;2024-03-23T10:43:34;5.07;;;1.73;;
75169;SDS011;63749;49.186;9.222;2024-03-23T10:46:01;6.57;;;1.92;;
75169;SDS011;63749;49.186;9.222;2024-03-23T10:48:26;6.50;;;2.00;;
75169;SDS011;63749;49.186;9.222;2024-03-23T10:50:52;5.85;;;1.90;;
75169;SDS011;63749;49.186;9.222;2024-03-23T10:53:18;9.33;;;2.10;;
75169;SDS011;63749;49.186;9.222;2024-03-23T10:55:46;5.97;;;2.10;;
75169;SDS011;63749;49.186;9.222;2024-03-23T10:58:11;6.27;;;1.90;;
75169;SDS011;63749;49.186;9.222;2024-03-23T11:00:37;5.65;;;2.30;;
75169;SDS011;63749;49.186;9.222;2024-03-23T11:03:46;5.55;;;1.90;;
75169;SDS011;63749;49.186;9.222;2024-03-23T11:05:55;5.65;;;1.80;;
75169;SDS011;63749;49.186;9.222;2024-03-23T11:08:31;4.80;;;1.90;;
75169;SDS011;63749;49.186;9.222;2024-03-23T11:11:18;6.93;;;2.20;;
75169;SDS011;63749;49.186;9.222;2024-03-23T11:13:49;7.47;;;2.15;;
75169;SDS011;63749;49.186;9.222;2024-03-23T11:16:22;4.83;;;2.13;;
75169;SDS011;63749;49.186;9.222;2024-03-23T11:22:04;7.33;;;2.30;;
75169;SDS011;63749;49.186;9.222;2024-03-23T11:24:31;6.03;;;2.40;;
75169;SDS011;63749;49.186;9.222;2024-03-23T11:26:56;8.13;;;2.85;;
75169;SDS011;63749;49.186;9.222;2024-03-23T11:29:26;5.53;;;2.40;;
75169;SDS011;63749;49.186;9.222;2024-03-23T11:31:52;5.00;;;2.30;;
75169;SDS011;63749;49.186;9.222;2024-03-23T11:34:18;6.55;;;2.50;;
75169;SDS011;63749;49.186;9.222;2024-03-23T11:36:45;7.88;;;2.70;;
75169;SDS011;63749;49.186;9.222;2024-03-23T11:39:11;7.43;;;2.57;;
75169;SDS011;63749;49.186;9.222;2024-03-23T11:41:46;5.95;;;2.63;;
75169;SDS011;63749;49.186;9.222;2024-03-23T11:47:08;8.73;;;2.80;;
75169;SDS011;63749;49.186;9.222;2024-03-23T11:49:35;7.75;;;2.53;;
75169;SDS011;63749;49.186;9.222;2024-03-23T11:52:05;9.37;;;2.60;;
75169;SDS011;63749;49.186;9.222;2024-03-23T11:54:31;9.63;;;2.78;;
75169;SDS011;63749;49.186;9.222;2024-03-23T11:56:57;6.10;;;2.63;;
75169;SDS011;63749;49.186;9.222;2024-03-23T11:59:43;6.80;;;2.20;;
75169;SDS011;63749;49.186;9.222;2024-03-23T12:02:09;7.38;;;2.35;;
75169;SDS011;63749;49.186;9.222;2024-03-23T12:04:36;5.88;;;2.42;;
75169;SDS011;63749;49.186;9.222;2024-03-23T12:07:11;6.87;;;2.50;;
75169;SDS011;63749;49.186;9.222;2024-03-23T12:10:04;6.38;;;2.50;;
75169;SDS011;63749;49.186;9.222;2024-03-23T12:12:31;6.75;;;2.10;;
75169;SDS011;63749;49.186;9.222;2024-03-23T12:15:04;6.70;;;2.37;;
75169;SDS011;63749;49.186;9.222;2024-03-23T12:17:31;5.85;;;2.40;;
75169;SDS011;63749;49.186;9.222;2024-03-23T12:19:57;7.25;;;2.33;;
75169;SDS011;63749;49.186;9.222;2024-03-23T12:22:22;6.73;;;2.43;;
75169;SDS011;63749;49.186;9.222;2024-03-23T12:24:48;7.97;;;2.40;;
75169;SDS011;63749;49.186;9.222;2024-03-23T12:27:14;4.97;;;2.13;;
75169;SDS011;63749;49.186;9.222;2024-03-23T12:29:40;6.95;;;2.20;;
75169;SDS011;63749;49.186;9.222;2024-03-23T12:32:06;5.90;;;2.30;;
75169;SDS011;63749;49.186;9.222;2024-03-23T12:34:32;6.20;;;2.00;;
75169;SDS011;63749;49.186;9.222;2024-03-23T12:36:57;5.63;;;1.80;;
75169;SDS011;63749;49.186;9.222;2024-03-23T12:39:23;6.00;;;1.90;;
75169;SDS011;63749;49.186;9.222;2024-03-23T12:41:51;3.77;;;1.80;;
75169;SDS011;63749;49.186;9.222;2024-03-23T12:44:17;5.33;;;1.67;;
75169;SDS011;63749;49.186;9.222;2024-03-23T12:46:43;3.58;;;1.50;;
75169;SDS011;63749;49.186;9.222;2024-03-23T12:49:08;5.53;;;1.77;;
75169;SDS011;63749;49.186;9.222;2024-03-23T12:51:33;4.57;;;1.77;;
75169;SDS011;63749;49.186;9.222;2024-03-23T12:53:59;5.50;;;1.60;;
75169;SDS011;63749;49.186;9.222;2024-03-23T12:56:24;6.88;;;1.40;;
75169;SDS011;63749;49.186;9.222;2024-03-23T12:58:50;4.43;;;1.37;;
75169;SDS011;63749;49.186;9.222;2024-03-23T13:01:16;8.80;;;1.45;;
75169;SDS011;63749;49.186;9.222;2024-03-23T13:03:42;3.38;;;1.40;;
75169;SDS011;63749;49.186;9.222;2024-03-23T13:06:09;5.73;;;2.23;;
75169;SDS011;63749;49.186;9.222;2024-03-23T13:08:35;3.97;;;1.65;;
75169;SDS011;63749;49.186;9.222;2024-03-23T13:11:00;12.77;;;1.80;;
75169;SDS011;63749;49.186;9.222;2024-03-23T13:13:25;3.80;;;1.53;;
75169;SDS011;63749;49.186;9.222;2024-03-23T13:15:51;5.67;;;1.80;;
75169;SDS011;63749;49.186;9.222;2024-03-23T13:18:16;7.50;;;1.80;;
75169;SDS011;63749;49.186;9.222;2024-03-23T13:20:42;4.33;;;1.60;;
75169;SDS011;63749;49.186;9.222;2024-03-23T13:23:07;3.83;;;1.67;;
75169;SDS011;63749;49.186;9.222;2024-03-23T13:25:32;4.20;;;1.40;;
75169;SDS011;63749;49.186;9.222;2024-03-23T13:27:58;7.65;;;2.15;;
75169;SDS011;63749;49.186;9.222;2024-03-23T13:30:24;7.57;;;2.30;;
75169;SDS011;63749;49.186;9.222;2024-03-23T13:32:49;8.37;;;2.60;;
75169;SDS011;63749;49.186;9.222;2024-03-23T13:35:15;8.07;;;3.20;;
75169;SDS011;63749;49.186;9.222;2024-03-23T13:37:41;9.20;;;2.90;;
75169;SDS011;63749;49.186;9.222;2024-03-23T13:40:07;10.60;;;3.13;;
75169;SDS011;63749;49.186;9.222;2024-03-23T13:42:33;8.57;;;3.00;;
75169;SDS011;63749;49.186;9.222;2024-03-23T13:44:58;6.90;;;2.72;;
75169;SDS011;63749;49.186;9.222;2024-03-23T13:47:24;7.03;;;2.50;;
75169;SDS011;63749;49.186;9.222;2024-03-23T13:49:49;6.77;;;2.90;;
75169;SDS011;63749;49.186;9.222;2024-03-23T13:52:15;7.65;;;2.47;;
75169;SDS011;63749;49.186;9.222;2024-03-23T13:54:41;7.53;;;2.83;;
75169;SDS011;63749;49.186;9.222;2024-03-23T13:57:11;7.25;;;1.60;;
75169;SDS011;63749;49.186;9.222;2024-03-23T13:59:36;3.47;;;1.10;;
75169;SDS011;63749;49.186;9.222;2024-03-23T14:02:02;2.87;;;1.00;;
75169;SDS011;63749;49.186;9.222;2024-03-23T14:04:27;5.45;;;1.60;;
75169;SDS011;63749;49.186;9.222;2024-03-23T14:06:52;4.20;;;1.80;;
75169;SDS011;63749;49.186;9.222;2024-03-23T14:09:18;6.77;;;1.90;;
75169;SDS011;63749;49.186;9.222;2024-03-23T14:11:48;5.82;;;1.88;;
75169;SDS011;63749;49.186;9.222;2024-03-23T14:14:13;4.57;;;2.00;;
75169;SDS011;63749;49.186;9.222;2024-03-23T14:16:42;4.40;;;1.95;;
75169;SDS011;63749;49.186;9.222;2024-03-23T14:19:07;2.75;;;1.08;;
75169;SDS011;63749;49.186;9.222;2024-03-23T14:21:33;4.53;;;1.40;;
75169;SDS011;63749;49.186;9.222;2024-03-23T14:23:59;3.20;;;1.15;;
75169;SDS011;63749;49.186;9.222;2024-03-23T14:26:25;3.05;;;1.67;;
75169;SDS011;63749;49.186;9.222;2024-03-23T14:28:51;2.70;;;1.40;;
75169;SDS011;63749;49.186;9.222;2024-03-23T14:31:17;4.20;;;1.30;;
75169;SDS011;63749;49.186;9.222;2024-03-23T14:33:42;3.70;;;1.50;;
75169;SDS011;63749;49.186;9.222;2024-03-23T14:36:12;4.30;;;1.83;;
75169;SDS011;63749;49.186;9.222;2024-03-23T14:38:41;3.00;;;1.60;;
75169;SDS011;63749;49.186;9.222;2024-03-23T14:41:07;2.75;;;1.77;;
75169;SDS011;63749;49.186;9.222;2024-03-23T14:43:32;3.90;;;2.00;;
75169;SDS011;63749;49.186;9.222;2024-03-23T14:46:08;3.07;;;1.60;;
75169;SDS011;63749;49.186;9.222;2024-03-23T14:48:40;3.97;;;1.85;;
75169;SDS011;63749;49.186;9.222;2024-03-23T14:51:08;3.20;;;1.73;;
75169;SDS011;63749;49.186;9.222;2024-03-23T14:53:34;4.20;;;2.00;;
75169;SDS011;63749;49.186;9.222;2024-03-23T14:56:00;2.30;;;1.10;;
75169;SDS011;63749;49.186;9.222;2024-03-23T14:58:27;2.65;;;1.00;;
75169;SDS011;63749;49.186;9.222;2024-03-23T15:00:53;4.10;;;1.00;;
75169;SDS011;63749;49.186;9.222;2024-03-23T15:03:24;2.55;;;0.80;;
75169;SDS011;63749;49.186;9.222;2024-03-23T15:05:53;2.00;;;0.90;;
75169;SDS011;63749;49.186;9.222;2024-03-23T15:08:21;3.42;;;1.00;;
75169;SDS011;63749;49.186;9.222;2024-03-23T15:10:47;3.83;;;1.83;;
75169;SDS011;63749;49.186;9.222;2024-03-23T15:13:13;3.22;;;1.60;;
75169;SDS011;63749;49.186;9.222;2024-03-23T15:15:39;3.20;;;1.90;;
75169;SDS011;63749;49.186;9.222;2024-03-23T15:18:12;4.90;;;1.73;;
75169;SDS011;63749;49.186;9.222;2024-03-23T15:20:39;3.38;;;1.98;;
75169;SDS011;63749;49.186;9.222;2024-03-23T15:23:05;3.33;;;1.90;;
75169;SDS011;63749;49.186;9.222;2024-03-23T15:25:31;3.57;;;1.70;;
75169;SDS011;63749;49.186;9.222;2024-03-23T15:27:57;2.40;;;1.60;;
75169;SDS011;63749;49.186;9.222;2024-03-23T15:30:23;3.53;;;1.60;;
75169;SDS011;63749;49.186;9.222;2024-03-23T15:32:49;2.30;;;1.65;;
75169;SDS011;63749;49.186;9.222;2024-03-23T15:35:14;3.67;;;1.60;;
75169;SDS011;63749;49.186;9.222;2024-03-23T15:37:39;3.63;;;2.53;;